TRA26V LEPA-EHAM
Flight info
| Callsign | TRA26V |
|---|---|
| Flight time | 2h 2m |
| Altitude | 38000 |
| Route | GALAT DCT RODRA DCT VNV DCT ANTON DCT BISES DCT SADUR DCT CAVES DCT LATRO DCT OLOXO DCT OKABI DCT TOU DCT ADABI DCT BOKNO UN858 VANAD UN874 BAMES UT191 PODEM DCT BAZOS DCT LUMIL DCT BELOB UY873 DENUT |
| Aircraft | A21N/M-SDE3FGHIRWY/LB1 |
Departure
| Time | 2026-05-06 17:27 |
|---|---|
| Airport | Palma de Mallorca Airport (LEPA) |
Arrival
| Time | 2026-05-06 19:29 |
|---|---|
| Airport | Amsterdam Airport Schiphol (EHAM) |
| Time | Latitude | Longitude | Altitude | Speed | Heading |
|---|---|---|---|---|---|
| 2026-05-06 16:12 | 39.55083 | 2.72835 | 29 ft | 0 kts | 185° |
| 2026-05-06 17:15 | 39.55095 | 2.72836 | 28 ft | 4 kts | 182° |
| 2026-05-06 17:16 | 39.55122 | 2.72835 | 29 ft | 4 kts | 168° |
| 2026-05-06 17:16 | 39.55143 | 2.72823 | 30 ft | 4 kts | 111° |
| 2026-05-06 17:16 | 39.55144 | 2.72813 | 30 ft | 0 kts | 58° |
| 2026-05-06 17:19 | 39.55145 | 2.72815 | 30 ft | 2 kts | 58° |
| 2026-05-06 17:19 | 39.55168 | 2.72862 | 30 ft | 8 kts | 58° |
| 2026-05-06 17:19 | 39.55211 | 2.72955 | 30 ft | 16 kts | 59° |
| 2026-05-06 17:19 | 39.55276 | 2.73091 | 30 ft | 21 kts | 58° |
| 2026-05-06 17:20 | 39.55369 | 2.73284 | 30 ft | 26 kts | 58° |
| 2026-05-06 17:20 | 39.55456 | 2.73468 | 30 ft | 18 kts | 57° |
| 2026-05-06 17:20 | 39.55500 | 2.73560 | 30 ft | 10 kts | 63° |
| 2026-05-06 17:20 | 39.55472 | 2.73619 | 30 ft | 8 kts | 147° |
| 2026-05-06 17:21 | 39.55424 | 2.73657 | 30 ft | 10 kts | 149° |
| 2026-05-06 17:21 | 39.55314 | 2.73744 | 30 ft | 22 kts | 149° |
| 2026-05-06 17:21 | 39.55179 | 2.73851 | 30 ft | 23 kts | 147° |
| 2026-05-06 17:21 | 39.55035 | 2.73962 | 30 ft | 25 kts | 149° |
| 2026-05-06 17:22 | 39.54885 | 2.74082 | 30 ft | 24 kts | 148° |
| 2026-05-06 17:22 | 39.54769 | 2.74079 | 30 ft | 18 kts | 237° |
| 2026-05-06 17:22 | 39.54699 | 2.73933 | 30 ft | 20 kts | 238° |
| 2026-05-06 17:22 | 39.54624 | 2.73772 | 30 ft | 22 kts | 239° |
| 2026-05-06 17:23 | 39.54544 | 2.73604 | 30 ft | 23 kts | 237° |
| 2026-05-06 17:23 | 39.54458 | 2.73423 | 30 ft | 23 kts | 238° |
| 2026-05-06 17:23 | 39.54388 | 2.73273 | 30 ft | 15 kts | 239° |
| 2026-05-06 17:23 | 39.54332 | 2.73157 | 30 ft | 16 kts | 238° |
| 2026-05-06 17:24 | 39.54272 | 2.73030 | 30 ft | 17 kts | 240° |
| 2026-05-06 17:24 | 39.54231 | 2.72945 | 30 ft | 9 kts | 231° |
| 2026-05-06 17:24 | 39.54190 | 2.72925 | 30 ft | 5 kts | 174° |
| 2026-05-06 17:24 | 39.54168 | 2.72946 | 30 ft | 3 kts | 130° |
| 2026-05-06 17:25 | 39.54161 | 2.72968 | 30 ft | 2 kts | 105° |
| 2026-05-06 17:25 | 39.54153 | 2.73049 | 30 ft | 20 kts | 95° |
| 2026-05-06 17:25 | 39.54149 | 2.73202 | 30 ft | 11 kts | 84° |
| 2026-05-06 17:25 | 39.54171 | 2.73266 | 30 ft | 7 kts | 59° |
| 2026-05-06 17:26 | 39.54196 | 2.73319 | 30 ft | 10 kts | 59° |
| 2026-05-06 17:26 | 39.54349 | 2.73641 | 30 ft | 79 kts | 58° |
| 2026-05-06 17:26 | 39.54750 | 2.74487 | 30 ft | 138 kts | 58° |
| 2026-05-06 17:26 | 39.55163 | 2.75362 | 88 ft | 167 kts | 58° |
| 2026-05-06 17:27 | 39.55721 | 2.76562 | 761 ft | 162 kts | 59° |
| 2026-05-06 17:27 | 39.56294 | 2.77824 | 1461 ft | 162 kts | 59° |
| 2026-05-06 17:27 | 39.56861 | 2.79093 | 2139 ft | 165 kts | 59° |
| 2026-05-06 17:27 | 39.57478 | 2.80452 | 2527 ft | 186 kts | 59° |
| 2026-05-06 17:28 | 39.58174 | 2.81979 | 2861 ft | 208 kts | 59° |
| 2026-05-06 17:28 | 39.58946 | 2.83668 | 3375 ft | 223 kts | 59° |
| 2026-05-06 17:28 | 39.59738 | 2.85402 | 4220 ft | 224 kts | 59° |
| 2026-05-06 17:28 | 39.60541 | 2.87157 | 5035 ft | 227 kts | 59° |
| 2026-05-06 17:29 | 39.61385 | 2.88901 | 5835 ft | 230 kts | 49° |
| 2026-05-06 17:29 | 39.62663 | 2.90134 | 6580 ft | 235 kts | 22° |
| 2026-05-06 17:29 | 39.64340 | 2.90465 | 6940 ft | 258 kts | 351° |
| 2026-05-06 17:29 | 39.66028 | 2.89523 | 7441 ft | 274 kts | 318° |
| 2026-05-06 17:30 | 39.67169 | 2.87530 | 8196 ft | 279 kts | 298° |
| 2026-05-06 17:30 | 39.68182 | 2.85364 | 9048 ft | 283 kts | 303° |
| 2026-05-06 17:30 | 39.69303 | 2.83234 | 9875 ft | 287 kts | 305° |
| 2026-05-06 17:30 | 39.70484 | 2.81075 | 10400 ft | 304 kts | 305° |
| 2026-05-06 17:31 | 39.71755 | 2.78750 | 10684 ft | 327 kts | 304° |
| 2026-05-06 17:31 | 39.73086 | 2.76277 | 11240 ft | 337 kts | 303° |
| 2026-05-06 17:31 | 39.74408 | 2.73786 | 11974 ft | 341 kts | 302° |
| 2026-05-06 17:31 | 39.75754 | 2.71226 | 12729 ft | 345 kts | 302° |
| 2026-05-06 17:32 | 39.77110 | 2.68630 | 13475 ft | 348 kts | 301° |
| 2026-05-06 17:32 | 39.78473 | 2.66009 | 14171 ft | 352 kts | 301° |
| 2026-05-06 17:32 | 39.79843 | 2.63369 | 14873 ft | 354 kts | 301° |
| 2026-05-06 17:32 | 39.81223 | 2.60705 | 15563 ft | 356 kts | 301° |
| 2026-05-06 17:33 | 39.82612 | 2.58019 | 16237 ft | 359 kts | 301° |
| 2026-05-06 17:33 | 39.84011 | 2.55318 | 16917 ft | 361 kts | 300° |
| 2026-05-06 17:33 | 39.85418 | 2.52599 | 17577 ft | 363 kts | 300° |
| 2026-05-06 17:33 | 39.86836 | 2.49866 | 18225 ft | 366 kts | 300° |
| 2026-05-06 17:34 | 39.88265 | 2.47113 | 18784 ft | 368 kts | 300° |
| 2026-05-06 17:34 | 39.89701 | 2.44338 | 19324 ft | 371 kts | 300° |
| 2026-05-06 17:34 | 39.91146 | 2.41536 | 19862 ft | 373 kts | 300° |
| 2026-05-06 17:34 | 39.92595 | 2.38718 | 20394 ft | 376 kts | 300° |
| 2026-05-06 17:35 | 39.94055 | 2.35881 | 20925 ft | 378 kts | 300° |
| 2026-05-06 17:35 | 39.95528 | 2.33019 | 21449 ft | 381 kts | 300° |
| 2026-05-06 17:35 | 39.97008 | 2.30143 | 21940 ft | 383 kts | 299° |
| 2026-05-06 17:36 | 39.99995 | 2.24325 | 22956 ft | 388 kts | 299° |
| 2026-05-06 17:36 | 40.01504 | 2.21388 | 23456 ft | 391 kts | 299° |
| 2026-05-06 17:36 | 40.03019 | 2.18435 | 23891 ft | 393 kts | 299° |
| 2026-05-06 17:36 | 40.04539 | 2.15466 | 24314 ft | 394 kts | 298° |
| 2026-05-06 17:37 | 40.06063 | 2.12483 | 24720 ft | 396 kts | 298° |
| 2026-05-06 17:37 | 40.07592 | 2.09486 | 25124 ft | 397 kts | 298° |
| 2026-05-06 17:37 | 40.09127 | 2.06476 | 25524 ft | 399 kts | 298° |
| 2026-05-06 17:37 | 40.10671 | 2.03455 | 25937 ft | 401 kts | 298° |
| 2026-05-06 17:38 | 40.12230 | 2.00419 | 26313 ft | 403 kts | 300° |
| 2026-05-06 17:38 | 40.14089 | 1.97622 | 26691 ft | 413 kts | 310° |
| 2026-05-06 17:38 | 40.16390 | 1.95293 | 27064 ft | 425 kts | 321° |
| 2026-05-06 17:38 | 40.19073 | 1.93557 | 27428 ft | 437 kts | 333° |
| 2026-05-06 17:39 | 40.22055 | 1.92533 | 27771 ft | 449 kts | 343° |
| 2026-05-06 17:39 | 40.25142 | 1.91818 | 28131 ft | 452 kts | 342° |
| 2026-05-06 17:39 | 40.28250 | 1.91098 | 28435 ft | 455 kts | 342° |
| 2026-05-06 17:39 | 40.31375 | 1.90375 | 28748 ft | 458 kts | 342° |
| 2026-05-06 17:40 | 40.34529 | 1.89646 | 29039 ft | 460 kts | 342° |
| 2026-05-06 17:40 | 40.37693 | 1.88912 | 29330 ft | 463 kts | 342° |
| 2026-05-06 17:40 | 40.40838 | 1.88182 | 29626 ft | 465 kts | 342° |
| 2026-05-06 17:40 | 40.44033 | 1.87436 | 29911 ft | 467 kts | 342° |
| 2026-05-06 17:41 | 40.47250 | 1.86681 | 30194 ft | 469 kts | 341° |
| 2026-05-06 17:41 | 40.50475 | 1.85922 | 30488 ft | 470 kts | 341° |
| 2026-05-06 17:41 | 40.53688 | 1.85171 | 30876 ft | 468 kts | 341° |
| 2026-05-06 17:41 | 40.56890 | 1.84429 | 31263 ft | 466 kts | 341° |
| 2026-05-06 17:42 | 40.60080 | 1.83691 | 31648 ft | 465 kts | 341° |
| 2026-05-06 17:42 | 40.63259 | 1.82951 | 32033 ft | 463 kts | 341° |
| 2026-05-06 17:42 | 40.66427 | 1.82208 | 32413 ft | 462 kts | 341° |
| 2026-05-06 17:42 | 40.69587 | 1.81461 | 32787 ft | 460 kts | 341° |
| 2026-05-06 17:43 | 40.72732 | 1.80716 | 33164 ft | 458 kts | 341° |
| 2026-05-06 17:43 | 40.75867 | 1.79972 | 33558 ft | 457 kts | 341° |
| 2026-05-06 17:43 | 40.78993 | 1.79232 | 33927 ft | 456 kts | 341° |
| 2026-05-06 17:43 | 40.82109 | 1.78493 | 34245 ft | 455 kts | 341° |
| 2026-05-06 17:44 | 40.85222 | 1.77754 | 34531 ft | 455 kts | 341° |
| 2026-05-06 17:44 | 40.88336 | 1.77016 | 34792 ft | 455 kts | 341° |
| 2026-05-06 17:44 | 40.91458 | 1.76278 | 35078 ft | 455 kts | 342° |
| 2026-05-06 17:44 | 40.94571 | 1.75543 | 35309 ft | 456 kts | 342° |
| 2026-05-06 17:45 | 40.97707 | 1.74801 | 35546 ft | 456 kts | 342° |
| 2026-05-06 17:45 | 41.00836 | 1.74058 | 35795 ft | 456 kts | 342° |
| 2026-05-06 17:45 | 41.03959 | 1.73313 | 36014 ft | 456 kts | 342° |
| 2026-05-06 17:45 | 41.07135 | 1.72606 | 36243 ft | 458 kts | 344° |
| 2026-05-06 17:46 | 41.10300 | 1.72042 | 36472 ft | 460 kts | 346° |
| 2026-05-06 17:46 | 41.13483 | 1.71573 | 36707 ft | 461 kts | 347° |
| 2026-05-06 17:46 | 41.16675 | 1.71148 | 36924 ft | 461 kts | 347° |
| 2026-05-06 17:46 | 41.18877 | 1.70862 | 37072 ft | 461 kts | 347° |
| 2026-05-06 17:47 | 41.22069 | 1.70432 | 37283 ft | 461 kts | 347° |
| 2026-05-06 17:47 | 41.25253 | 1.69976 | 37494 ft | 460 kts | 347° |
| 2026-05-06 17:47 | 41.28435 | 1.69496 | 37700 ft | 460 kts | 347° |
| 2026-05-06 17:47 | 41.31613 | 1.68997 | 37889 ft | 460 kts | 347° |
| 2026-05-06 17:48 | 41.37988 | 1.67982 | 37924 ft | 461 kts | 347° |
| 2026-05-06 17:48 | 41.44353 | 1.66977 | 37928 ft | 461 kts | 347° |
| 2026-05-06 17:49 | 41.50731 | 1.65988 | 37927 ft | 461 kts | 347° |
| 2026-05-06 17:49 | 41.57090 | 1.64998 | 37929 ft | 461 kts | 347° |
| 2026-05-06 17:50 | 41.63464 | 1.63997 | 37925 ft | 461 kts | 347° |
| 2026-05-06 17:50 | 41.69837 | 1.62992 | 37928 ft | 461 kts | 347° |
| 2026-05-06 17:51 | 41.76224 | 1.61982 | 37936 ft | 462 kts | 347° |
| 2026-05-06 17:51 | 41.82608 | 1.60976 | 37962 ft | 462 kts | 348° |
| 2026-05-06 17:52 | 41.89005 | 1.59970 | 37958 ft | 462 kts | 348° |
| 2026-05-06 17:52 | 41.95392 | 1.58961 | 37964 ft | 463 kts | 347° |
| 2026-05-06 17:53 | 42.01785 | 1.57942 | 37980 ft | 462 kts | 348° |
| 2026-05-06 17:53 | 42.08175 | 1.56923 | 37967 ft | 462 kts | 347° |
| 2026-05-06 17:54 | 42.14572 | 1.55913 | 37959 ft | 462 kts | 348° |
| 2026-05-06 17:54 | 42.20967 | 1.54897 | 37956 ft | 461 kts | 348° |
| 2026-05-06 17:55 | 42.27318 | 1.53887 | 37937 ft | 459 kts | 348° |
| 2026-05-06 17:55 | 42.33668 | 1.52863 | 37937 ft | 459 kts | 348° |
| 2026-05-06 17:56 | 42.40017 | 1.51836 | 37973 ft | 459 kts | 348° |
| 2026-05-06 17:56 | 42.46349 | 1.50813 | 37960 ft | 459 kts | 348° |
| 2026-05-06 17:57 | 42.52652 | 1.49807 | 37963 ft | 458 kts | 348° |
| 2026-05-06 17:57 | 42.58991 | 1.48792 | 37973 ft | 459 kts | 348° |
| 2026-05-06 17:58 | 42.65328 | 1.47757 | 38011 ft | 459 kts | 348° |
| 2026-05-06 17:58 | 42.71670 | 1.46741 | 38025 ft | 459 kts | 348° |
| 2026-05-06 17:59 | 42.78023 | 1.45728 | 38021 ft | 459 kts | 348° |
| 2026-05-06 17:59 | 42.84373 | 1.44704 | 38019 ft | 458 kts | 348° |
| 2026-05-06 18:00 | 42.90712 | 1.43672 | 38026 ft | 459 kts | 348° |
| 2026-05-06 18:00 | 42.97062 | 1.42641 | 38026 ft | 459 kts | 348° |
| 2026-05-06 18:01 | 43.03407 | 1.41616 | 38044 ft | 459 kts | 348° |
| 2026-05-06 18:01 | 43.09754 | 1.40585 | 38031 ft | 459 kts | 348° |
| 2026-05-06 18:02 | 43.16078 | 1.39546 | 38018 ft | 460 kts | 348° |
| 2026-05-06 18:02 | 43.22425 | 1.38507 | 38022 ft | 460 kts | 349° |
| 2026-05-06 18:03 | 43.28791 | 1.37473 | 38017 ft | 460 kts | 349° |
| 2026-05-06 18:03 | 43.35150 | 1.36431 | 38006 ft | 460 kts | 349° |
| 2026-05-06 18:04 | 43.41510 | 1.35383 | 38004 ft | 460 kts | 349° |
| 2026-05-06 18:04 | 43.47876 | 1.34328 | 38028 ft | 460 kts | 349° |
| 2026-05-06 18:05 | 43.54234 | 1.33274 | 38011 ft | 460 kts | 349° |
| 2026-05-06 18:05 | 43.60632 | 1.32210 | 37995 ft | 460 kts | 349° |
| 2026-05-06 18:06 | 43.66989 | 1.31157 | 38003 ft | 460 kts | 349° |
| 2026-05-06 18:06 | 43.73304 | 1.29842 | 37999 ft | 458 kts | 346° |
| 2026-05-06 18:07 | 43.79550 | 1.28136 | 38000 ft | 457 kts | 344° |
| 2026-05-06 18:07 | 43.85789 | 1.26392 | 38011 ft | 457 kts | 345° |
| 2026-05-06 18:08 | 43.90993 | 1.25030 | 37997 ft | 458 kts | 346° |
| 2026-05-06 18:08 | 43.97257 | 1.23446 | 37992 ft | 457 kts | 346° |
| 2026-05-06 18:09 | 44.03515 | 1.21839 | 38011 ft | 457 kts | 346° |
| 2026-05-06 18:09 | 44.09778 | 1.20203 | 37999 ft | 457 kts | 346° |
| 2026-05-06 18:10 | 44.16026 | 1.18565 | 37993 ft | 456 kts | 346° |
| 2026-05-06 18:10 | 44.22262 | 1.16934 | 38000 ft | 456 kts | 346° |
| 2026-05-06 18:11 | 44.28496 | 1.15299 | 37988 ft | 456 kts | 346° |
| 2026-05-06 18:11 | 44.34726 | 1.13660 | 37980 ft | 455 kts | 346° |
| 2026-05-06 18:12 | 44.40949 | 1.12023 | 37977 ft | 455 kts | 346° |
| 2026-05-06 18:12 | 44.47172 | 1.10378 | 37979 ft | 454 kts | 346° |
| 2026-05-06 18:13 | 44.53385 | 1.08745 | 37971 ft | 454 kts | 346° |
| 2026-05-06 18:13 | 44.59553 | 1.07107 | 37969 ft | 454 kts | 346° |
| 2026-05-06 18:14 | 44.65759 | 1.05455 | 37975 ft | 454 kts | 347° |
| 2026-05-06 18:14 | 44.71964 | 1.03807 | 37966 ft | 454 kts | 346° |
| 2026-05-06 18:15 | 44.78180 | 1.02145 | 37965 ft | 454 kts | 346° |
| 2026-05-06 18:15 | 44.84398 | 1.00487 | 37958 ft | 454 kts | 346° |
| 2026-05-06 18:16 | 44.90579 | 0.98833 | 37958 ft | 454 kts | 346° |
| 2026-05-06 18:16 | 44.96788 | 0.97166 | 37958 ft | 454 kts | 347° |
| 2026-05-06 18:17 | 45.02993 | 0.95505 | 37964 ft | 454 kts | 347° |
| 2026-05-06 18:17 | 45.09194 | 0.93826 | 37957 ft | 454 kts | 347° |
| 2026-05-06 18:18 | 45.15394 | 0.92144 | 37971 ft | 454 kts | 347° |
| 2026-05-06 18:18 | 45.21602 | 0.90460 | 37979 ft | 454 kts | 347° |
| 2026-05-06 18:19 | 45.27801 | 0.88780 | 37973 ft | 453 kts | 347° |
| 2026-05-06 18:19 | 45.33998 | 0.87096 | 37967 ft | 453 kts | 347° |
| 2026-05-06 18:20 | 45.40194 | 0.85412 | 37965 ft | 453 kts | 347° |
| 2026-05-06 18:20 | 45.46388 | 0.83720 | 37957 ft | 453 kts | 347° |
| 2026-05-06 18:21 | 45.52580 | 0.82017 | 37955 ft | 453 kts | 347° |
| 2026-05-06 18:21 | 45.58771 | 0.80318 | 37961 ft | 453 kts | 347° |
| 2026-05-06 18:22 | 45.64961 | 0.78615 | 37955 ft | 453 kts | 347° |
| 2026-05-06 18:22 | 45.71147 | 0.76901 | 37960 ft | 453 kts | 347° |
| 2026-05-06 18:23 | 45.77329 | 0.75202 | 37967 ft | 452 kts | 347° |
| 2026-05-06 18:23 | 45.83511 | 0.73497 | 37959 ft | 452 kts | 347° |
| 2026-05-06 18:24 | 45.89681 | 0.71779 | 37959 ft | 451 kts | 347° |
| 2026-05-06 18:24 | 45.95814 | 0.70066 | 37958 ft | 451 kts | 347° |
| 2026-05-06 18:25 | 46.01981 | 0.68342 | 37969 ft | 451 kts | 347° |
| 2026-05-06 18:25 | 46.08148 | 0.66617 | 37965 ft | 451 kts | 347° |
| 2026-05-06 18:26 | 46.14314 | 0.64898 | 37964 ft | 451 kts | 347° |
| 2026-05-06 18:26 | 46.20478 | 0.63168 | 37976 ft | 451 kts | 347° |
| 2026-05-06 18:27 | 46.26640 | 0.61440 | 37973 ft | 451 kts | 347° |
| 2026-05-06 18:27 | 46.32807 | 0.59692 | 37970 ft | 451 kts | 347° |
| 2026-05-06 18:28 | 46.38973 | 0.57945 | 37980 ft | 451 kts | 347° |
| 2026-05-06 18:28 | 46.45139 | 0.56200 | 37988 ft | 451 kts | 347° |
| 2026-05-06 18:29 | 46.51296 | 0.54457 | 37988 ft | 451 kts | 347° |
| 2026-05-06 18:29 | 46.57547 | 0.53804 | 37995 ft | 454 kts | 4° |
| 2026-05-06 18:30 | 46.63743 | 0.55597 | 37990 ft | 455 kts | 11° |
| 2026-05-06 18:30 | 46.69931 | 0.57639 | 37985 ft | 455 kts | 11° |
| 2026-05-06 18:31 | 46.75067 | 0.59325 | 37984 ft | 456 kts | 11° |
| 2026-05-06 18:31 | 46.81261 | 0.61364 | 37979 ft | 456 kts | 11° |
| 2026-05-06 18:32 | 46.87440 | 0.63410 | 37973 ft | 456 kts | 11° |
| 2026-05-06 18:32 | 46.93631 | 0.65473 | 37974 ft | 456 kts | 11° |
| 2026-05-06 18:33 | 46.99812 | 0.67531 | 37978 ft | 456 kts | 11° |
| 2026-05-06 18:33 | 47.06031 | 0.69308 | 37978 ft | 453 kts | 2° |
| 2026-05-06 18:34 | 47.12317 | 0.69955 | 37982 ft | 453 kts | 2° |
| 2026-05-06 18:34 | 47.18617 | 0.70606 | 37988 ft | 453 kts | 2° |
| 2026-05-06 18:35 | 47.24917 | 0.71269 | 37993 ft | 453 kts | 2° |
| 2026-05-06 18:35 | 47.31224 | 0.71923 | 37995 ft | 453 kts | 2° |
| 2026-05-06 18:36 | 47.37514 | 0.72585 | 37994 ft | 453 kts | 2° |
| 2026-05-06 18:36 | 47.43810 | 0.73258 | 37999 ft | 453 kts | 2° |
| 2026-05-06 18:37 | 47.50085 | 0.74259 | 37994 ft | 454 kts | 12° |
| 2026-05-06 18:37 | 47.56121 | 0.77083 | 37991 ft | 455 kts | 17° |
| 2026-05-06 18:38 | 47.62132 | 0.80044 | 37977 ft | 455 kts | 17° |
| 2026-05-06 18:38 | 47.68145 | 0.83000 | 37978 ft | 455 kts | 17° |
| 2026-05-06 18:39 | 47.74158 | 0.85971 | 37978 ft | 455 kts | 17° |
| 2026-05-06 18:40 | 47.83149 | 0.90436 | 37982 ft | 456 kts | 17° |
| 2026-05-06 18:40 | 47.89167 | 0.93445 | 37984 ft | 456 kts | 17° |
| 2026-05-06 18:41 | 47.95172 | 0.96490 | 37990 ft | 456 kts | 17° |
| 2026-05-06 18:41 | 48.01177 | 0.99549 | 37988 ft | 456 kts | 17° |
| 2026-05-06 18:42 | 48.07182 | 1.02610 | 37994 ft | 456 kts | 17° |
| 2026-05-06 18:42 | 48.13228 | 1.05683 | 37990 ft | 456 kts | 17° |
| 2026-05-06 18:43 | 48.19250 | 1.08744 | 37954 ft | 461 kts | 17° |
| 2026-05-06 18:43 | 48.25310 | 1.11841 | 37963 ft | 463 kts | 18° |
| 2026-05-06 18:44 | 48.31414 | 1.14966 | 37969 ft | 463 kts | 18° |
| 2026-05-06 18:44 | 48.37516 | 1.18072 | 37966 ft | 463 kts | 17° |
| 2026-05-06 18:45 | 48.43625 | 1.21185 | 37971 ft | 464 kts | 18° |
| 2026-05-06 18:45 | 48.49776 | 1.24351 | 37975 ft | 464 kts | 18° |
| 2026-05-06 18:46 | 48.55854 | 1.27494 | 37979 ft | 464 kts | 18° |
| 2026-05-06 18:46 | 48.61990 | 1.30601 | 37978 ft | 465 kts | 17° |
| 2026-05-06 18:47 | 48.68132 | 1.33675 | 37981 ft | 465 kts | 17° |
| 2026-05-06 18:47 | 48.74286 | 1.36773 | 37992 ft | 466 kts | 17° |
| 2026-05-06 18:48 | 48.80447 | 1.39893 | 37995 ft | 466 kts | 17° |
| 2026-05-06 18:48 | 48.86587 | 1.43021 | 37991 ft | 466 kts | 17° |
| 2026-05-06 18:49 | 48.92735 | 1.46163 | 37994 ft | 466 kts | 17° |
| 2026-05-06 18:49 | 48.98938 | 1.48937 | 37998 ft | 464 kts | 8° |
| 2026-05-06 18:50 | 49.05331 | 1.50411 | 37994 ft | 464 kts | 7° |
| 2026-05-06 18:50 | 49.11719 | 1.51914 | 38000 ft | 464 kts | 7° |
| 2026-05-06 18:51 | 49.18109 | 1.53426 | 37993 ft | 465 kts | 7° |
| 2026-05-06 18:51 | 49.24402 | 1.55642 | 37998 ft | 467 kts | 21° |
| 2026-05-06 18:52 | 49.29921 | 1.60833 | 37996 ft | 469 kts | 41° |
| 2026-05-06 18:52 | 49.34659 | 1.67720 | 37980 ft | 470 kts | 43° |
| 2026-05-06 18:53 | 49.39365 | 1.74608 | 37985 ft | 470 kts | 43° |
| 2026-05-06 18:53 | 49.44119 | 1.81600 | 37976 ft | 471 kts | 43° |
| 2026-05-06 18:54 | 49.48849 | 1.88573 | 37980 ft | 471 kts | 43° |
| 2026-05-06 18:54 | 49.53816 | 1.95120 | 37988 ft | 470 kts | 35° |
| 2026-05-06 18:55 | 49.58207 | 2.00073 | 37989 ft | 471 kts | 35° |
| 2026-05-06 18:55 | 49.63488 | 2.06047 | 37987 ft | 471 kts | 35° |
| 2026-05-06 18:56 | 49.68766 | 2.12039 | 37985 ft | 471 kts | 35° |
| 2026-05-06 18:56 | 49.74046 | 2.18056 | 37985 ft | 471 kts | 36° |
| 2026-05-06 18:57 | 49.79319 | 2.24079 | 37975 ft | 471 kts | 36° |
| 2026-05-06 18:57 | 49.84588 | 2.30111 | 37969 ft | 471 kts | 36° |
| 2026-05-06 18:58 | 49.89861 | 2.36161 | 37970 ft | 471 kts | 36° |
| 2026-05-06 18:58 | 49.95116 | 2.42216 | 37972 ft | 471 kts | 36° |
| 2026-05-06 18:59 | 50.00376 | 2.48295 | 37967 ft | 471 kts | 36° |
| 2026-05-06 18:59 | 50.05606 | 2.54360 | 37971 ft | 471 kts | 36° |
| 2026-05-06 19:00 | 50.10904 | 2.60503 | 37965 ft | 472 kts | 36° |
| 2026-05-06 19:00 | 50.16169 | 2.66612 | 37965 ft | 472 kts | 36° |
| 2026-05-06 19:01 | 50.21423 | 2.72757 | 37973 ft | 472 kts | 36° |
| 2026-05-06 19:01 | 50.26684 | 2.78921 | 37960 ft | 472 kts | 36° |
| 2026-05-06 19:02 | 50.31977 | 2.85139 | 37961 ft | 472 kts | 36° |
| 2026-05-06 19:02 | 50.37229 | 2.91321 | 37960 ft | 472 kts | 36° |
| 2026-05-06 19:03 | 50.42543 | 2.97370 | 37960 ft | 472 kts | 30° |
| 2026-05-06 19:03 | 50.48310 | 3.02268 | 37963 ft | 471 kts | 27° |
| 2026-05-06 19:04 | 50.54141 | 3.07183 | 37960 ft | 471 kts | 27° |
| 2026-05-06 19:04 | 50.59914 | 3.12065 | 37965 ft | 471 kts | 27° |
| 2026-05-06 19:05 | 50.65688 | 3.16976 | 37963 ft | 472 kts | 27° |
| 2026-05-06 19:05 | 50.68599 | 3.19459 | 37861 ft | 471 kts | 27° |
| 2026-05-06 19:05 | 50.71487 | 3.21923 | 37201 ft | 469 kts | 27° |
| 2026-05-06 19:05 | 50.74370 | 3.24356 | 36503 ft | 468 kts | 27° |
| 2026-05-06 19:06 | 50.77206 | 3.26715 | 36060 ft | 465 kts | 26° |
| 2026-05-06 19:06 | 50.80196 | 3.29186 | 35897 ft | 465 kts | 26° |
| 2026-05-06 19:06 | 50.83073 | 3.31563 | 35942 ft | 466 kts | 26° |
| 2026-05-06 19:07 | 50.88818 | 3.36325 | 35938 ft | 464 kts | 27° |
| 2026-05-06 19:07 | 50.94475 | 3.41076 | 35934 ft | 458 kts | 27° |
| 2026-05-06 19:07 | 50.97274 | 3.43444 | 35558 ft | 456 kts | 27° |
| 2026-05-06 19:08 | 50.99972 | 3.46084 | 34881 ft | 456 kts | 39° |
| 2026-05-06 19:08 | 51.02163 | 3.49717 | 33853 ft | 457 kts | 55° |
| 2026-05-06 19:08 | 51.03621 | 3.54185 | 32550 ft | 455 kts | 70° |
| 2026-05-06 19:08 | 51.04615 | 3.58950 | 31315 ft | 456 kts | 72° |
| 2026-05-06 19:09 | 51.05578 | 3.63783 | 30114 ft | 452 kts | 72° |
| 2026-05-06 19:09 | 51.06521 | 3.68501 | 28786 ft | 447 kts | 72° |
| 2026-05-06 19:09 | 51.07659 | 3.73041 | 27492 ft | 441 kts | 58° |
| 2026-05-06 19:09 | 51.09649 | 3.76657 | 26342 ft | 432 kts | 34° |
| 2026-05-06 19:10 | 51.12284 | 3.78709 | 25501 ft | 415 kts | 12° |
| 2026-05-06 19:10 | 51.15101 | 3.79004 | 24587 ft | 403 kts | 348° |
| 2026-05-06 19:10 | 51.17701 | 3.77481 | 24149 ft | 399 kts | 330° |
| 2026-05-06 19:10 | 51.20166 | 3.75360 | 23968 ft | 402 kts | 330° |
| 2026-05-06 19:11 | 51.22620 | 3.73243 | 23924 ft | 402 kts | 330° |
| 2026-05-06 19:11 | 51.25069 | 3.71067 | 23914 ft | 403 kts | 332° |
| 2026-05-06 19:11 | 51.27715 | 3.69702 | 23433 ft | 401 kts | 351° |
| 2026-05-06 19:11 | 51.29560 | 3.69599 | 22989 ft | 401 kts | 3° |
| 2026-05-06 19:12 | 51.32274 | 3.70593 | 22345 ft | 401 kts | 20° |
| 2026-05-06 19:12 | 51.34808 | 3.72420 | 21747 ft | 399 kts | 23° |
| 2026-05-06 19:12 | 51.37326 | 3.74249 | 21192 ft | 396 kts | 23° |
| 2026-05-06 19:12 | 51.39831 | 3.76042 | 20771 ft | 392 kts | 22° |
| 2026-05-06 19:13 | 51.42312 | 3.77806 | 20245 ft | 388 kts | 22° |
| 2026-05-06 19:13 | 51.44770 | 3.79553 | 19731 ft | 385 kts | 22° |
| 2026-05-06 19:13 | 51.47208 | 3.81287 | 19253 ft | 381 kts | 22° |
| 2026-05-06 19:13 | 51.49625 | 3.83015 | 18767 ft | 378 kts | 22° |
| 2026-05-06 19:14 | 51.52003 | 3.84724 | 18303 ft | 375 kts | 22° |
| 2026-05-06 19:14 | 51.54379 | 3.86437 | 17777 ft | 372 kts | 22° |
| 2026-05-06 19:14 | 51.56728 | 3.88132 | 17258 ft | 368 kts | 22° |
| 2026-05-06 19:14 | 51.59058 | 3.89812 | 16761 ft | 366 kts | 22° |
| 2026-05-06 19:15 | 51.61370 | 3.91482 | 16249 ft | 363 kts | 22° |
| 2026-05-06 19:15 | 51.63660 | 3.93140 | 15782 ft | 360 kts | 22° |
| 2026-05-06 19:15 | 51.65937 | 3.94788 | 15315 ft | 357 kts | 22° |
| 2026-05-06 19:15 | 51.68228 | 3.96444 | 14805 ft | 355 kts | 22° |
| 2026-05-06 19:16 | 51.70490 | 3.98081 | 13883 ft | 367 kts | 22° |
| 2026-05-06 19:16 | 51.72827 | 3.99779 | 13174 ft | 368 kts | 22° |
| 2026-05-06 19:16 | 51.75153 | 4.01474 | 12590 ft | 365 kts | 23° |
| 2026-05-06 19:16 | 51.77454 | 4.03154 | 12037 ft | 361 kts | 22° |
| 2026-05-06 19:17 | 51.79759 | 4.04838 | 11472 ft | 357 kts | 23° |
| 2026-05-06 19:17 | 51.82009 | 4.06482 | 10900 ft | 353 kts | 23° |
| 2026-05-06 19:17 | 51.84205 | 4.08089 | 10712 ft | 338 kts | 23° |
| 2026-05-06 19:17 | 51.86256 | 4.09595 | 10565 ft | 310 kts | 23° |
| 2026-05-06 19:18 | 51.88154 | 4.10989 | 10260 ft | 292 kts | 24° |
| 2026-05-06 19:18 | 51.89976 | 4.12324 | 9754 ft | 283 kts | 24° |
| 2026-05-06 19:18 | 51.91652 | 4.13924 | 9535 ft | 280 kts | 38° |
| 2026-05-06 19:18 | 51.93161 | 4.15931 | 9384 ft | 279 kts | 38° |
| 2026-05-06 19:19 | 51.94656 | 4.17890 | 8757 ft | 274 kts | 38° |
| 2026-05-06 19:19 | 51.96136 | 4.19820 | 8074 ft | 272 kts | 38° |
| 2026-05-06 19:19 | 51.97600 | 4.21728 | 7424 ft | 268 kts | 37° |
| 2026-05-06 19:19 | 51.99035 | 4.23606 | 7027 ft | 264 kts | 38° |
| 2026-05-06 19:20 | 52.00533 | 4.25342 | 6933 ft | 261 kts | 27° |
| 2026-05-06 19:20 | 52.02107 | 4.26526 | 6946 ft | 241 kts | 23° |
| 2026-05-06 19:20 | 52.03618 | 4.27580 | 6951 ft | 234 kts | 22° |
| 2026-05-06 19:20 | 52.05119 | 4.28617 | 6952 ft | 234 kts | 22° |
| 2026-05-06 19:21 | 52.06596 | 4.29633 | 6907 ft | 225 kts | 22° |
| 2026-05-06 19:21 | 52.08002 | 4.30601 | 6792 ft | 215 kts | 22° |
| 2026-05-06 19:21 | 52.09364 | 4.31538 | 6616 ft | 211 kts | 23° |
| 2026-05-06 19:21 | 52.10715 | 4.32462 | 6364 ft | 210 kts | 22° |
| 2026-05-06 19:22 | 52.12061 | 4.33382 | 6123 ft | 209 kts | 22° |
| 2026-05-06 19:22 | 52.13397 | 4.34295 | 5895 ft | 206 kts | 22° |
| 2026-05-06 19:22 | 52.14720 | 4.35200 | 5619 ft | 206 kts | 22° |
| 2026-05-06 19:22 | 52.16045 | 4.36103 | 5344 ft | 207 kts | 22° |
| 2026-05-06 19:23 | 52.17368 | 4.36999 | 5119 ft | 205 kts | 22° |
| 2026-05-06 19:23 | 52.18630 | 4.38027 | 4909 ft | 203 kts | 39° |
| 2026-05-06 19:23 | 52.19362 | 4.39928 | 4739 ft | 200 kts | 77° |
| 2026-05-06 19:23 | 52.19425 | 4.42156 | 4614 ft | 194 kts | 89° |
| 2026-05-06 19:24 | 52.19324 | 4.44312 | 4462 ft | 186 kts | 90° |
| 2026-05-06 19:24 | 52.19195 | 4.46390 | 4135 ft | 182 kts | 92° |
| 2026-05-06 19:24 | 52.19268 | 4.48413 | 3718 ft | 178 kts | 72° |
| 2026-05-06 19:24 | 52.19813 | 4.50192 | 3424 ft | 176 kts | 57° |
| 2026-05-06 19:25 | 52.20458 | 4.51851 | 3176 ft | 173 kts | 56° |
| 2026-05-06 19:25 | 52.21080 | 4.53455 | 2928 ft | 162 kts | 56° |
| 2026-05-06 19:25 | 52.21666 | 4.54966 | 2705 ft | 154 kts | 57° |
| 2026-05-06 19:25 | 52.22230 | 4.56421 | 2515 ft | 151 kts | 57° |
| 2026-05-06 19:26 | 52.22796 | 4.57881 | 2293 ft | 149 kts | 57° |
| 2026-05-06 19:26 | 52.23347 | 4.59305 | 2100 ft | 148 kts | 57° |
| 2026-05-06 19:26 | 52.23890 | 4.60708 | 1894 ft | 146 kts | 57° |
| 2026-05-06 19:26 | 52.24426 | 4.62095 | 1704 ft | 143 kts | 56° |
| 2026-05-06 19:27 | 52.24973 | 4.63510 | 1483 ft | 145 kts | 57° |
| 2026-05-06 19:27 | 52.25503 | 4.64883 | 1287 ft | 145 kts | 56° |
| 2026-05-06 19:27 | 52.26037 | 4.66267 | 1088 ft | 143 kts | 55° |
| 2026-05-06 19:27 | 52.26553 | 4.67604 | 893 ft | 136 kts | 54° |
| 2026-05-06 19:28 | 52.27053 | 4.68899 | 697 ft | 136 kts | 57° |
| 2026-05-06 19:28 | 52.27556 | 4.70200 | 503 ft | 134 kts | 54° |
| 2026-05-06 19:28 | 52.28062 | 4.71502 | 328 ft | 136 kts | 52° |
| 2026-05-06 19:28 | 52.28555 | 4.72805 | 170 ft | 133 kts | 54° |
| 2026-05-06 19:29 | 52.29050 | 4.74085 | 15 ft | 129 kts | 54° |
| 2026-05-06 19:29 | 52.29457 | 4.75149 | -3 ft | 89 kts | 57° |
| 2026-05-06 19:29 | 52.29699 | 4.75781 | -3 ft | 51 kts | 57° |
| 2026-05-06 19:29 | 52.29870 | 4.76219 | -3 ft | 34 kts | 60° |
| 2026-05-06 19:30 | 52.29994 | 4.76498 | -2 ft | 25 kts | 41° |
| 2026-05-06 19:30 | 52.30127 | 4.76627 | -1 ft | 19 kts | 26° |
| 2026-05-06 19:30 | 52.30214 | 4.76699 | -1 ft | 10 kts | 28° |
| 2026-05-06 19:30 | 52.30229 | 4.76712 | -1 ft | 0 kts | 27° |
| 2026-05-06 19:31 | 52.30231 | 4.76714 | -1 ft | 1 kts | 27° |
| 2026-05-06 19:31 | 52.30270 | 4.76742 | -1 ft | 8 kts | 18° |
| 2026-05-06 19:32 | 52.30330 | 4.76725 | -1 ft | 10 kts | 341° |
| 2026-05-06 19:32 | 52.30392 | 4.76758 | -1 ft | 9 kts | 15° |
| 2026-05-06 19:32 | 52.30439 | 4.76730 | -1 ft | 7 kts | 333° |
| 2026-05-06 19:32 | 52.30454 | 4.76717 | -1 ft | 1 kts | 335° |
| 2026-05-06 19:33 | 52.30458 | 4.76714 | -1 ft | 1 kts | 335° |
| 2026-05-06 19:33 | 52.30461 | 4.76712 | -1 ft | 0 kts | 335° |